Terminal Aerodrome Forecast
Issued by NWS

Home | Current Version | Previous Version | Text Only | Print | Product List | Glossary On
Versions: 1 2 3 4 5 6 7 8 9 10 11 12 13 14 15 16 17 18 19 20
019
FTUS46 KMTR 250528
TAFMRY
TAF
KMRY 250528Z 2506/2606 26004KT P6SM OVC002
      TEMPO 2511/2515 1/2SM FG VV001
     FM251700 28004KT P6SM FEW010
     FM251900 29009KT P6SM SKC
     FM260200 27008KT P6SM OVC005
     FM260400 24006KT P6SM OVC002=

USA.gov is the U.S. government's official web portal to all federal, state and local government web resources and services.